sensor_id;sensor_type;location;lat;lon;timestamp;P1;durP1;ratioP1;P2;durP2;ratioP2
63534;SDS011;55128;50.230;18.944;2022-08-11T00:01:51;4.63;;;2.80;;
63534;SDS011;55128;50.230;18.944;2022-08-11T00:06:53;3.85;;;2.63;;
63534;SDS011;55128;50.230;18.944;2022-08-11T00:11:54;4.18;;;3.00;;
63534;SDS011;55128;50.230;18.944;2022-08-11T00:17:00;3.42;;;2.58;;
63534;SDS011;55128;50.230;18.944;2022-08-11T00:22:07;3.83;;;2.85;;
63534;SDS011;55128;50.230;18.944;2022-08-11T00:27:10;5.97;;;3.10;;
63534;SDS011;55128;50.230;18.944;2022-08-11T00:32:12;5.15;;;3.00;;
63534;SDS011;55128;50.230;18.944;2022-08-11T00:37:17;5.57;;;2.97;;
63534;SDS011;55128;50.230;18.944;2022-08-11T00:42:30;5.10;;;2.88;;
63534;SDS011;55128;50.230;18.944;2022-08-11T00:48:09;3.92;;;2.45;;
63534;SDS011;55128;50.230;18.944;2022-08-11T01:04:19;8.27;;;3.47;;
63534;SDS011;55128;50.230;18.944;2022-08-11T01:09:42;7.63;;;2.75;;
63534;SDS011;55128;50.230;18.944;2022-08-11T01:37:44;5.82;;;2.85;;
63534;SDS011;55128;50.230;18.944;2022-08-11T01:43:35;6.77;;;2.80;;
63534;SDS011;55128;50.230;18.944;2022-08-11T01:49:28;4.22;;;2.58;;
63534;SDS011;55128;50.230;18.944;2022-08-11T01:54:52;4.25;;;2.60;;
63534;SDS011;55128;50.230;18.944;2022-08-11T02:00:18;3.53;;;2.58;;
63534;SDS011;55128;50.230;18.944;2022-08-11T02:05:28;3.67;;;3.13;;
63534;SDS011;55128;50.230;18.944;2022-08-11T02:10:38;4.88;;;2.83;;
63534;SDS011;55128;50.230;18.944;2022-08-11T02:21:26;5.75;;;4.00;;
63534;SDS011;55128;50.230;18.944;2022-08-11T02:27:15;5.85;;;2.92;;
63534;SDS011;55128;50.230;18.944;2022-08-11T02:32:31;4.95;;;3.20;;
63534;SDS011;55128;50.230;18.944;2022-08-11T02:38:19;5.53;;;3.25;;
63534;SDS011;55128;50.230;18.944;2022-08-11T02:43:44;4.22;;;3.10;;
63534;SDS011;55128;50.230;18.944;2022-08-11T02:54:26;6.38;;;3.20;;
63534;SDS011;55128;50.230;18.944;2022-08-11T03:15:31;5.28;;;3.17;;
63534;SDS011;55128;50.230;18.944;2022-08-11T03:21:09;6.50;;;3.33;;
63534;SDS011;55128;50.230;18.944;2022-08-11T03:32:00;4.43;;;3.15;;
63534;SDS011;55128;50.230;18.944;2022-08-11T03:54:08;5.13;;;3.55;;
63534;SDS011;55128;50.230;18.944;2022-08-11T04:26:39;8.20;;;5.70;;
63534;SDS011;55128;50.230;18.944;2022-08-11T04:32:27;14.15;;;9.52;;
63534;SDS011;55128;50.230;18.944;2022-08-11T04:38:13;5.65;;;4.22;;
63534;SDS011;55128;50.230;18.944;2022-08-11T05:16:33;10.38;;;4.50;;
63534;SDS011;55128;50.230;18.944;2022-08-11T05:22:17;8.70;;;4.20;;
63534;SDS011;55128;50.230;18.944;2022-08-11T05:27:39;7.25;;;4.38;;
63534;SDS011;55128;50.230;18.944;2022-08-11T05:33:09;7.07;;;3.80;;
63534;SDS011;55128;50.230;18.944;2022-08-11T05:38:33;8.63;;;4.70;;
63534;SDS011;55128;50.230;18.944;2022-08-11T05:43:54;7.65;;;4.38;;
63534;SDS011;55128;50.230;18.944;2022-08-11T05:49:21;8.35;;;4.40;;
63534;SDS011;55128;50.230;18.944;2022-08-11T05:59:56;8.55;;;4.78;;
63534;SDS011;55128;50.230;18.944;2022-08-11T06:04:59;10.60;;;4.72;;
63534;SDS011;55128;50.230;18.944;2022-08-11T06:10:01;10.07;;;4.40;;
63534;SDS011;55128;50.230;18.944;2022-08-11T06:15:04;10.75;;;4.75;;
63534;SDS011;55128;50.230;18.944;2022-08-11T06:20:10;8.02;;;4.40;;
63534;SDS011;55128;50.230;18.944;2022-08-11T06:25:12;11.23;;;4.65;;
63534;SDS011;55128;50.230;18.944;2022-08-11T06:30:15;11.45;;;4.72;;
63534;SDS011;55128;50.230;18.944;2022-08-11T06:40:28;9.68;;;4.80;;
63534;SDS011;55128;50.230;18.944;2022-08-11T06:46:14;13.38;;;5.10;;
63534;SDS011;55128;50.230;18.944;2022-08-11T06:51:22;13.82;;;5.65;;
63534;SDS011;55128;50.230;18.944;2022-08-11T06:56:36;13.17;;;5.53;;
63534;SDS011;55128;50.230;18.944;2022-08-11T07:13:53;8.48;;;4.72;;
63534;SDS011;55128;50.230;18.944;2022-08-11T08:30:44;7.35;;;3.67;;
63534;SDS011;55128;50.230;18.944;2022-08-11T08:35:52;11.02;;;3.60;;
63534;SDS011;55128;50.230;18.944;2022-08-11T08:41:11;9.70;;;3.40;;
63534;SDS011;55128;50.230;18.944;2022-08-11T08:46:14;5.78;;;3.25;;
63534;SDS011;55128;50.230;18.944;2022-08-11T08:51:18;5.60;;;2.40;;
63534;SDS011;55128;50.230;18.944;2022-08-11T08:56:36;7.20;;;2.58;;
63534;SDS011;55128;50.230;18.944;2022-08-11T09:02:01;4.82;;;1.90;;
63534;SDS011;55128;50.230;18.944;2022-08-11T09:07:05;3.58;;;1.73;;
63534;SDS011;55128;50.230;18.944;2022-08-11T09:12:09;3.05;;;1.50;;
63534;SDS011;55128;50.230;18.944;2022-08-11T09:17:12;4.30;;;1.70;;
63534;SDS011;55128;50.230;18.944;2022-08-11T09:22:22;3.60;;;1.58;;
63534;SDS011;55128;50.230;18.944;2022-08-11T09:27:43;3.40;;;1.40;;
63534;SDS011;55128;50.230;18.944;2022-08-11T09:32:43;1.67;;;1.10;;
63534;SDS011;55128;50.230;18.944;2022-08-11T09:37:45;1.40;;;1.10;;
63534;SDS011;55128;50.230;18.944;2022-08-11T09:43:05;2.70;;;1.10;;
63534;SDS011;55128;50.230;18.944;2022-08-11T09:48:28;4.78;;;1.40;;
63534;SDS011;55128;50.230;18.944;2022-08-11T09:53:38;1.83;;;1.20;;
63534;SDS011;55128;50.230;18.944;2022-08-11T09:58:42;3.17;;;1.30;;
63534;SDS011;55128;50.230;18.944;2022-08-11T10:08:45;5.25;;;1.35;;
63534;SDS011;55128;50.230;18.944;2022-08-11T10:13:51;4.78;;;1.33;;
63534;SDS011;55128;50.230;18.944;2022-08-11T10:19:11;4.45;;;1.42;;
63534;SDS011;55128;50.230;18.944;2022-08-11T10:24:14;3.45;;;1.30;;
63534;SDS011;55128;50.230;18.944;2022-08-11T10:29:37;3.85;;;1.50;;
63534;SDS011;55128;50.230;18.944;2022-08-11T10:34:58;3.33;;;1.52;;
63534;SDS011;55128;50.230;18.944;2022-08-11T10:45:04;3.40;;;1.45;;
63534;SDS011;55128;50.230;18.944;2022-08-11T10:55:46;2.72;;;1.20;;
63534;SDS011;55128;50.230;18.944;2022-08-11T11:01:10;3.53;;;1.00;;
63534;SDS011;55128;50.230;18.944;2022-08-11T11:11:32;3.40;;;1.30;;
63534;SDS011;55128;50.230;18.944;2022-08-11T11:16:55;3.97;;;1.08;;
63534;SDS011;55128;50.230;18.944;2022-08-11T11:22:15;2.75;;;1.15;;
63534;SDS011;55128;50.230;18.944;2022-08-11T11:33:01;2.53;;;1.23;;
63534;SDS011;55128;50.230;18.944;2022-08-11T11:38:11;1.30;;;0.73;;
63534;SDS011;55128;50.230;18.944;2022-08-11T11:43:13;1.42;;;0.90;;
63534;SDS011;55128;50.230;18.944;2022-08-11T11:48:14;2.80;;;1.10;;
63534;SDS011;55128;50.230;18.944;2022-08-11T11:53:14;3.25;;;1.10;;
63534;SDS011;55128;50.230;18.944;2022-08-11T11:58:15;2.08;;;0.88;;
63534;SDS011;55128;50.230;18.944;2022-08-11T12:03:35;3.53;;;1.20;;
63534;SDS011;55128;50.230;18.944;2022-08-11T12:08:37;3.00;;;1.08;;
63534;SDS011;55128;50.230;18.944;2022-08-11T12:13:38;3.28;;;0.98;;
63534;SDS011;55128;50.230;18.944;2022-08-11T12:18:41;1.48;;;0.80;;
63534;SDS011;55128;50.230;18.944;2022-08-11T12:23:48;2.78;;;0.90;;
63534;SDS011;55128;50.230;18.944;2022-08-11T12:29:09;2.10;;;0.70;;
63534;SDS011;55128;50.230;18.944;2022-08-11T12:34:15;3.33;;;0.80;;
63534;SDS011;55128;50.230;18.944;2022-08-11T12:39:19;3.88;;;1.10;;
63534;SDS011;55128;50.230;18.944;2022-08-11T12:44:42;2.28;;;1.10;;
63534;SDS011;55128;50.230;18.944;2022-08-11T12:50:07;2.53;;;0.90;;
63534;SDS011;55128;50.230;18.944;2022-08-11T12:55:31;1.55;;;0.70;;
63534;SDS011;55128;50.230;18.944;2022-08-11T13:00:57;1.02;;;0.55;;
63534;SDS011;55128;50.230;18.944;2022-08-11T13:06:17;1.20;;;0.63;;
63534;SDS011;55128;50.230;18.944;2022-08-11T13:11:23;2.15;;;0.70;;
63534;SDS011;55128;50.230;18.944;2022-08-11T13:16:46;2.05;;;0.60;;
63534;SDS011;55128;50.230;18.944;2022-08-11T13:22:23;2.92;;;0.80;;
63534;SDS011;55128;50.230;18.944;2022-08-11T13:27:27;1.42;;;0.70;;
63534;SDS011;55128;50.230;18.944;2022-08-11T13:33:02;1.73;;;0.73;;
63534;SDS011;55128;50.230;18.944;2022-08-11T13:38:27;1.10;;;0.60;;
63534;SDS011;55128;50.230;18.944;2022-08-11T13:43:51;1.85;;;0.70;;
63534;SDS011;55128;50.230;18.944;2022-08-11T13:49:15;2.85;;;0.80;;
63534;SDS011;55128;50.230;18.944;2022-08-11T13:54:29;1.15;;;0.65;;
63534;SDS011;55128;50.230;18.944;2022-08-11T13:59:38;2.50;;;0.60;;
63534;SDS011;55128;50.230;18.944;2022-08-11T14:05:07;1.30;;;0.50;;
63534;SDS011;55128;50.230;18.944;2022-08-11T14:10:35;23.10;;;1.90;;
63534;SDS011;55128;50.230;18.944;2022-08-11T14:16:01;15.02;;;2.22;;
63534;SDS011;55128;50.230;18.944;2022-08-11T14:26:42;9.35;;;3.40;;
63534;SDS011;55128;50.230;18.944;2022-08-11T14:32:36;8.75;;;4.03;;
63534;SDS011;55128;50.230;18.944;2022-08-11T14:38:55;9.18;;;4.05;;
63534;SDS011;55128;50.230;18.944;2022-08-11T14:44:57;5.78;;;3.35;;
63534;SDS011;55128;50.230;18.944;2022-08-11T14:50:30;8.45;;;4.00;;
63534;SDS011;55128;50.230;18.944;2022-08-11T14:56:08;7.55;;;4.10;;
63534;SDS011;55128;50.230;18.944;2022-08-11T15:01:38;4.72;;;3.00;;
63534;SDS011;55128;50.230;18.944;2022-08-11T15:07:23;4.47;;;3.58;;
63534;SDS011;55128;50.230;18.944;2022-08-11T15:12:40;5.75;;;3.15;;
63534;SDS011;55128;50.230;18.944;2022-08-11T15:17:54;6.55;;;4.20;;
63534;SDS011;55128;50.230;18.944;2022-08-11T15:23:00;5.82;;;4.47;;
63534;SDS011;55128;50.230;18.944;2022-08-11T15:28:27;5.72;;;4.10;;
63534;SDS011;55128;50.230;18.944;2022-08-11T15:33:53;8.13;;;3.80;;
63534;SDS011;55128;50.230;18.944;2022-08-11T16:03:53;4.47;;;3.53;;
